Terminal Aerodrome Forecast
Issued by NWS

Home | Current Version | Previous Version | Text Only | Print | Product List | Glossary On
Versions: 1 2 3 4 5 6 7 8 9 10 11 12 13 14
889
FTUS42 TJSJ 131940 AAA
TAFNCM
TAF AMD
TNCM 131940Z 1320/1418 11010KT P6SM VCSH FEW018 SCT040
      TEMPO 1320/1322 BKN020
     FM141300 11012KT P6SM SCT025 SCT030=

USA.gov is the U.S. government's official web portal to all federal, state and local government web resources and services.